Time;durP1;ratioP1;P1;durP2;ratioP2;P2;SDS_P1;SDS_P2;PMS_P1;PMS_P2;Temp;Humidity;BMP_temperature;BMP_pressure;BME280_temperature;BME280_humidity;BME280_pressure;Samples;Min_cycle;Max_cycle;Signal;HPM_P1;HPM_P2
2023/05/10 00:53:57;;;;;;;15.73;14.38;;;17.00;99.90;;;;;;6292193;22;20143;31
2023/05/10 00:56:50;;;;;;;17.02;15.27;;;17.00;99.90;;;;;;6247787;22;20322;-94
2023/05/10 01:01:55;;;;;;;18.17;15.10;;;17.10;99.90;;;;;;6295809;22;20445;-92
2023/05/10 01:08:02;;;;;;;15.73;14.02;;;17.00;99.90;;;;;;6250021;23;20095;-93
2023/05/10 01:10:44;;;;;;;17.10;14.80;;;17.10;99.90;;;;;;6223165;23;20483;-94
2023/05/10 01:13:48;;;;;;;16.40;14.73;;;17.10;99.90;;;;;;6272050;22;20080;-93
2023/05/10 01:16:26;;;;;;;16.70;14.95;;;17.10;99.90;;;;;;6287015;22;20007;-95
2023/05/10 01:19:37;;;;;;;15.85;14.30;;;17.10;99.90;;;;;;6261114;22;20472;-94
2023/05/10 01:23:04;;;;;;;;;;;;;;;;;;;;;
2023/05/10 01:30:18;;;;;;;16.33;14.73;;;17.00;99.90;;;;;;6283128;22;20058;-94
2023/05/10 01:44:12;;;;;;;15.23;13.77;;;16.90;99.90;;;;;;6022128;23;20063;-92
2023/05/10 01:51:46;;;;;;;17.58;14.95;;;16.80;99.90;;;;;;5944215;24;20097;-94
2023/05/10 02:01:09;;;;;;;16.23;14.57;;;16.80;99.90;;;;;;6031890;23;20011;-94
2023/05/10 02:04:30;;;;;;;15.27;13.93;;;16.70;99.90;;;;;;6022129;23;20011;-93
2023/05/10 02:07:19;;;;;;;16.13;14.60;;;16.70;99.90;;;;;;6020500;23;20469;-93
2023/05/10 02:10:08;;;;;;;15.95;14.27;;;16.70;99.90;;;;;;6020439;23;20035;-95
2023/05/10 02:16:35;;;;;;;15.38;13.82;;;16.60;99.90;;;;;;5970262;23;20016;-94
2023/05/10 02:19:05;;;;;;;14.97;13.60;;;16.60;99.90;;;;;;5992665;23;20008;-94
2023/05/10 02:21:33;;;;;;;15.15;13.73;;;16.50;99.90;;;;;;6096450;23;20039;-93
2023/05/10 02:24:07;;;;;;;14.90;13.50;;;16.50;99.90;;;;;;6076678;23;20417;-94
2023/05/10 02:26:44;;;;;;;15.45;13.88;;;16.50;99.90;;;;;;6074657;23;20457;-93
2023/05/10 02:29:17;;;;;;;15.18;13.77;;;16.50;99.90;;;;;;6051004;23;20089;-93
2023/05/10 02:31:45;;;;;;;15.45;13.93;;;16.40;99.90;;;;;;6083925;23;20073;-93
2023/05/10 02:34:19;;;;;;;15.80;14.30;;;16.50;99.90;;;;;;6102410;23;20008;-94
2023/05/10 02:37:06;;;;;;;15.43;13.82;;;16.50;99.90;;;;;;6162880;23;20490;-94
2023/05/10 02:43:50;;;;;;;15.18;13.40;;;16.50;99.90;;;;;;5992504;23;20022;-94
2023/05/10 02:50:12;;;;;;;15.90;13.55;;;16.50;99.90;;;;;;6014695;23;20064;-94
2023/05/10 02:53:21;;;;;;;15.00;13.50;;;16.50;99.90;;;;;;6025863;23;20014;-93
2023/05/10 02:56:37;;;;;;;15.95;13.32;;;16.50;99.90;;;;;;6051930;23;20014;-93
2023/05/10 02:59:21;;;;;;;14.75;13.25;;;16.50;99.90;;;;;;6077681;23;20053;-93
2023/05/10 03:02:24;;;;;;;16.67;13.98;;;16.50;99.90;;;;;;6055489;23;20432;-94
2023/05/10 03:05:23;;;;;;;19.02;13.88;;;16.50;99.90;;;;;;6052940;23;20029;-95
2023/05/10 03:11:36;;;;;;;14.30;12.85;;;16.50;99.90;;;;;;6075201;23;20010;-93
2023/05/10 03:14:28;;;;;;;14.90;13.10;;;16.40;99.90;;;;;;6189036;23;20174;-94
2023/05/10 03:17:31;;;;;;;20.17;13.52;;;16.40;99.90;;;;;;6162928;23;20045;-95
2023/05/10 03:20:14;;;;;;;14.70;12.60;;;16.30;99.90;;;;;;6052265;23;20011;-94
2023/05/10 03:22:51;;;;;;;18.05;13.38;;;16.40;99.90;;;;;;6047177;23;20042;-95
2023/05/10 03:28:43;;;;;;;14.10;12.70;;;16.30;99.90;;;;;;6312184;22;20023;-92
2023/05/10 03:31:12;;;;;;;16.95;12.98;;;16.30;99.90;;;;;;6257344;22;20011;-92
2023/05/10 03:33:49;;;;;;;15.32;13.23;;;16.30;99.90;;;;;;6259517;22;20015;-94
2023/05/10 03:36:24;;;;;;;17.02;13.38;;;16.30;99.90;;;;;;6259651;22;20038;-95
2023/05/10 03:39:13;;;;;;;17.45;13.75;;;16.30;99.90;;;;;;6259794;22;20043;-95
2023/05/10 03:41:41;;;;;;;15.57;13.35;;;16.30;99.90;;;;;;6264041;22;20018;-94
2023/05/10 03:44:08;;;;;;;14.20;12.80;;;16.40;99.90;;;;;;6258024;22;20044;-93
2023/05/10 03:46:35;;;;;;;15.32;13.73;;;16.30;99.90;;;;;;6257331;22;20098;-92
2023/05/10 03:49:03;;;;;;;15.75;13.43;;;16.30;99.90;;;;;;6258425;22;20035;-95
2023/05/10 03:51:30;;;;;;;16.55;12.48;;;16.30;99.90;;;;;;6258235;22;20019;-95
2023/05/10 03:54:01;;;;;;;17.00;13.40;;;16.30;99.90;;;;;;6258314;22;20069;-92
2023/05/10 03:56:28;;;;;;;14.85;13.20;;;16.30;99.90;;;;;;6257908;22;20034;-94
2023/05/10 03:58:58;;;;;;;19.95;13.95;;;16.30;99.90;;;;;;6258267;22;20484;-94
2023/05/10 04:01:25;;;;;;;17.27;13.90;;;16.30;99.90;;;;;;6282866;22;20015;-93
2023/05/10 04:03:52;;;;;;;18.65;14.38;;;16.30;99.90;;;;;;6252541;22;20007;-93
2023/05/10 04:06:18;;;;;;;17.88;14.10;;;16.30;99.90;;;;;;6257051;22;20019;-95
2023/05/10 04:08:45;;;;;;;18.63;13.93;;;16.30;99.90;;;;;;6257529;22;20371;-93
2023/05/10 04:11:13;;;;;;;17.90;13.43;;;16.40;99.90;;;;;;6257429;22;20018;-94
2023/05/10 04:13:40;;;;;;;14.95;13.45;;;16.40;99.90;;;;;;6257091;22;20440;-92
2023/05/10 04:16:07;;;;;;;17.20;13.82;;;16.40;99.90;;;;;;6257584;22;20050;-93
2023/05/10 04:18:33;;;;;;;16.40;13.30;;;16.30;99.90;;;;;;6256955;22;20069;-92
2023/05/10 04:21:00;;;;;;;15.27;13.20;;;16.40;99.90;;;;;;6256985;22;20445;-94
2023/05/10 04:23:27;;;;;;;16.58;14.10;;;16.40;99.90;;;;;;6258932;22;20459;-92
2023/05/10 04:26:02;;;;;;;18.90;13.50;;;16.40;99.90;;;;;;6257602;22;20011;-92
2023/05/10 04:28:29;;;;;;;15.50;13.50;;;16.50;99.90;;;;;;6256707;22;20088;-93
2023/05/10 04:31:05;;;;;;;17.00;13.55;;;16.50;99.90;;;;;;6256964;22;20090;-94
2023/05/10 04:33:34;;;;;;;16.98;13.25;;;16.50;99.90;;;;;;6257533;22;20417;-94
2023/05/10 04:36:04;;;;;;;16.52;13.80;;;16.50;99.90;;;;;;6260720;22;20003;-94
2023/05/10 04:38:30;;;;;;;22.05;13.95;;;16.60;99.90;;;;;;6257587;22;20003;-93
2023/05/10 04:41:10;;;;;;;15.80;14.07;;;16.60;99.90;;;;;;6258303;22;20011;-93
2023/05/10 04:43:38;;;;;;;15.80;13.70;;;16.60;99.90;;;;;;6283200;22;20034;-94
2023/05/10 04:46:06;;;;;;;16.17;14.40;;;16.70;99.90;;;;;;6257519;22;20057;-94
2023/05/10 04:48:33;;;;;;;15.50;13.90;;;16.80;99.90;;;;;;6257053;22;20037;-93
2023/05/10 04:51:00;;;;;;;15.82;14.10;;;16.80;99.90;;;;;;6257457;22;20007;-92
2023/05/10 04:53:27;;;;;;;17.27;14.52;;;16.80;99.90;;;;;;6261253;22;20010;-92
2023/05/10 04:55:54;;;;;;;17.02;14.10;;;16.80;99.90;;;;;;6262201;22;20437;-93
2023/05/10 04:58:20;;;;;;;23.23;14.45;;;16.80;99.90;;;;;;6264314;22;20014;-94
2023/05/10 05:00:47;;;;;;;20.88;14.95;;;16.90;99.90;;;;;;6256072;22;20012;-93
2023/05/10 05:03:14;;;;;;;16.98;15.02;;;16.90;99.90;;;;;;6258623;22;20346;-92
2023/05/10 05:05:41;;;;;;;16.60;14.35;;;17.00;99.90;;;;;;6256961;22;20011;-94
2023/05/10 05:08:07;;;;;;;17.13;15.32;;;17.00;99.90;;;;;;6256843;22;20090;-94
2023/05/10 05:10:43;;;;;;;19.23;15.77;;;17.10;99.90;;;;;;6261857;22;20007;-94
2023/05/10 05:13:10;;;;;;;16.33;14.52;;;17.20;99.90;;;;;;6256970;22;20069;-93
2023/05/10 05:15:36;;;;;;;17.63;15.52;;;17.30;99.90;;;;;;6257462;22;20014;-92
2023/05/10 05:18:03;;;;;;;16.10;14.40;;;17.40;99.90;;;;;;6256725;22;20022;-93
2023/05/10 05:20:33;;;;;;;17.73;16.02;;;17.50;99.90;;;;;;6257790;22;20000;-92
2023/05/10 05:23:01;;;;;;;20.02;15.73;;;17.60;99.90;;;;;;6258602;22;20007;-94
2023/05/10 05:25:36;;;;;;;17.30;15.65;;;17.90;99.90;;;;;;6257919;22;20015;-93
2023/05/10 05:28:03;;;;;;;18.20;16.48;;;18.00;99.90;;;;;;6257999;22;20019;-93
2023/05/10 05:30:31;;;;;;;18.25;16.55;;;18.10;99.90;;;;;;6256888;22;20007;-93
2023/05/10 05:33:00;;;;;;;19.17;17.38;;;18.40;99.90;;;;;;6259297;22;20336;-95
2023/05/10 05:35:33;;;;;;;19.23;17.50;;;18.40;99.90;;;;;;6258114;22;20012;-94
2023/05/10 05:37:59;;;;;;;20.08;18.35;;;18.60;99.90;;;;;;6257445;22;20029;-94
2023/05/10 05:40:26;;;;;;;21.65;19.77;;;19.00;99.90;;;;;;6251885;22;20011;-94
2023/05/10 05:42:53;;;;;;;22.08;20.27;;;19.30;99.90;;;;;;6256682;22;20336;-92
2023/05/10 05:45:31;;;;;;;23.20;21.40;;;19.30;99.90;;;;;;6251508;22;20090;-95
2023/05/10 05:47:58;;;;;;;23.90;21.75;;;19.20;99.90;;;;;;6257866;22;20011;-92
2023/05/10 06:09:24;;;;;;;;;;;;;;;;;;;;;
2023/05/10 06:12:13;;;;;;;23.85;22.05;;;21.60;99.90;;;;;;6277103;22;20085;-96
2023/05/10 06:15:06;;;;;;;23.98;22.27;;;21.30;99.90;;;;;;6252003;22;20474;-95
2023/05/10 06:17:43;;;;;;;23.95;22.30;;;20.90;99.90;;;;;;6249621;22;20015;-93
2023/05/10 06:20:36;;;;;;;25.10;23.10;;;20.80;99.90;;;;;;6251086;22;20004;-93
2023/05/10 06:23:23;;;;;;;24.08;22.38;;;20.70;99.90;;;;;;6250913;22;20326;-93
2023/05/10 06:25:55;;;;;;;24.80;22.70;;;20.60;99.90;;;;;;6225935;22;20159;-94
2023/05/10 06:28:38;;;;;;;;;;;;;;;;;;;;;
2023/05/10 06:31:11;;;;;;;24.38;22.67;;;20.70;99.90;;;;;;6277169;22;20011;-94
2023/05/10 06:34:07;;;;;;;23.38;21.80;;;20.70;99.90;;;;;;6252552;22;20095;-93
2023/05/10 06:36:37;;;;;;;24.05;22.35;;;20.40;99.90;;;;;;6246936;22;20023;-94
2023/05/10 06:39:11;;;;;;;24.10;22.25;;;20.50;99.90;;;;;;6227070;22;20000;-92
2023/05/10 06:41:57;;;;;;;23.58;21.95;;;20.50;99.90;;;;;;6251455;22;20095;-93
2023/05/10 10:54:37;;;;;;;22.67;21.10;;;22.60;99.90;;;;;;6303460;22;20026;-94
2023/05/10 13:34:02;;;;;;;24.50;23.00;;;22.90;99.90;;;;;;6312139;22;20031;-93
2023/05/10 13:36:47;;;;;;;25.05;23.45;;;22.40;99.90;;;;;;6257122;22;20022;-92
2023/05/10 22:56:24;;;;;;;18.08;10.30;;;16.80;99.90;;;;;;6323045;22;20019;-89
2023/05/10 22:58:50;;;;;;;20.08;10.73;;;16.90;99.90;;;;;;6282108;22;20109;-85
2023/05/10 23:01:20;;;;;;;16.40;11.05;;;16.80;99.90;;;;;;6281783;22;20014;-79
2023/05/10 23:03:46;;;;;;;16.38;11.05;;;16.80;99.90;;;;;;6276714;22;20011;-75
